An Jin Shan — BRQH — position and weather

sailwx.info

Track history (hours):
 
Tides and Currents Weather Stations Pressure Air Temp Water Temp Dewpoint Dewpoint Depression Visibility Wind Speed Wind Dir Waves Ship Positions

An Jin Shan

Last reported at 2018-Jun-13 17:32 UTC. Time now 2018-Jun-24 05:08 UTC.
Position N 30°20' E 123°00'.
Warning: this ship's position is 10 days out of date.

Length 199 m; draft 11.2 m.

Type: Cargo ship. MMSI: 413189000.

Date/timePositionNaut miles runAvg speedWind from/ knotsBaromVisibWave heightAir tempDewpointWater temp
2018-Jun-13 17:32N 30°20' E 123°00'56 9.2
2018-Jun-13 11:30N 31°15' E 122°58'610.1
2018-Jun-13 10:56N 31°21' E 122°57'511.0
2018-Jun-13 10:30N 31°26' E 122°58'1811.9
2018-Jun-13 09:01N 31°43' E 122°59'111.4
2018-Jun-13 08:59N 31°44' E 122°59'811.3
2018-Jun-13 08:18N 31°51' E 122°59'2110.5
2018-Jun-13 06:16N 32°13' E 122°57'310.2
2018-Jun-13 06:00N 32°15' E 122°57'9 9.9
2018-Jun-13 05:06N 32°24' E 122°57'30310.1
2018-Jun-11 22:58N 37°27' E 122°46'11 9.8
2018-Jun-11 21:50N 37°36' E 122°38'410.1
2018-Jun-11 21:26N 37°38' E 122°33'610.0
2018-Jun-11 20:53N 37°41' E 122°28'410.0
2018-Jun-11 20:30N 37°43' E 122°24'510.3
2018-Jun-11 20:00N 37°46' E 122°19'1310.8
2018-Jun-11 18:45N 37°54' E 122°05'310.9
2018-Jun-11 18:30N 37°56' E 122°02'611.1
2018-Jun-11 18:00N 37°59' E 121°56'911.3
2018-Jun-11 17:11N 38°04' E 121°46'311.5
2018-Jun-11 16:58N 38°05' E 121°43'511.5
2018-Jun-11 16:30N 38°09' E 121°38'611.4
2018-Jun-11 16:00N 38°12' E 121°32'511.0
2018-Jun-11 15:30N 38°16' E 121°27'610.9
2018-Jun-11 14:57N 38°19' E 121°21'510.9
2018-Jun-11 14:30N 38°22' E 121°16'1710.4
2018-Jun-11 12:55N 38°31' E 120°58'  
2018-Jun-08 12:41N 39°46' E 119°51'0 0.1
2018-Jun-08 11:53N 39°46' E 119°51'0 0.1
2018-Jun-08 11:05N 39°46' E 119°51'  
2018-Jun-05 16:05N 39°46' E 119°51'0 0.1
2018-Jun-05 15:53N 39°46' E 119°51'0 0.0
2018-Jun-05 14:11N 39°46' E 119°51'0 0.0
2018-Jun-05 13:17N 39°46' E 119°51'0 0.0
2018-Jun-05 12:53N 39°46' E 119°51'0 0.0
2018-Jun-05 12:26N 39°46' E 119°51'0 0.0
2018-Jun-04 16:00N 39°46' E 119°51'1 1.1
2018-Jun-04 15:30N 39°46' E 119°52'13513.5
2018-Jun-04 05:32N 38°07' E 121°50'113.8
2018-Jun-04 05:27N 38°06' E 121°51'614.1
2018-Jun-04 05:00N 38°03' E 121°57'714.1
2018-Jun-04 04:30N 37°59' E 122°05'713.2
2018-Jun-04 04:00N 37°55' E 122°11'612.8
2018-Jun-04 03:30N 37°51' E 122°18'1912.9
2018-Jun-04 02:01N 37°40' E 122°38'015.3
2018-Jun-04 02:00N 37°40' E 122°38'4612.5
2018-Jun-03 22:16N 36°55' E 122°53'412.4
2018-Jun-03 21:58N 36°51' E 122°53'  
Track history (hours):
 
Tides and Currents Weather Stations Pressure Air Temp Water Temp Dewpoint Dewpoint Depression Visibility Wind Speed Wind Dir Waves Ship Positions

An Jin Shan

Last reported at 2018-Jun-13 17:32 UTC. Time now 2018-Jun-24 05:08 UTC.
Position N 30°20' E 123°00'.
Warning: this ship's position is 10 days out of date.

Length 199 m; draft 11.2 m.

Type: Cargo ship. MMSI: 413189000.

Date/timePositionNaut miles runAvg speedWind from/ knotsBaromVisibWave heightAir tempDewpointWater temp
2018-Jun-13 17:32N 30°20' E 123°00'56 9.2
2018-Jun-13 11:30N 31°15' E 122°58'610.1
2018-Jun-13 10:56N 31°21' E 122°57'511.0
2018-Jun-13 10:30N 31°26' E 122°58'1811.9
2018-Jun-13 09:01N 31°43' E 122°59'111.4
2018-Jun-13 08:59N 31°44' E 122°59'811.3
2018-Jun-13 08:18N 31°51' E 122°59'2110.5
2018-Jun-13 06:16N 32°13' E 122°57'310.2
2018-Jun-13 06:00N 32°15' E 122°57'9 9.9
2018-Jun-13 05:06N 32°24' E 122°57'30310.1
2018-Jun-11 22:58N 37°27' E 122°46'11 9.8
2018-Jun-11 21:50N 37°36' E 122°38'410.1
2018-Jun-11 21:26N 37°38' E 122°33'610.0
2018-Jun-11 20:53N 37°41' E 122°28'410.0
2018-Jun-11 20:30N 37°43' E 122°24'510.3
2018-Jun-11 20:00N 37°46' E 122°19'1310.8
2018-Jun-11 18:45N 37°54' E 122°05'310.9
2018-Jun-11 18:30N 37°56' E 122°02'611.1
2018-Jun-11 18:00N 37°59' E 121°56'911.3
2018-Jun-11 17:11N 38°04' E 121°46'311.5
2018-Jun-11 16:58N 38°05' E 121°43'511.5
2018-Jun-11 16:30N 38°09' E 121°38'611.4
2018-Jun-11 16:00N 38°12' E 121°32'511.0
2018-Jun-11 15:30N 38°16' E 121°27'610.9
2018-Jun-11 14:57N 38°19' E 121°21'510.9
2018-Jun-11 14:30N 38°22' E 121°16'1710.4
2018-Jun-11 12:55N 38°31' E 120°58'  
2018-Jun-08 12:41N 39°46' E 119°51'0 0.1
2018-Jun-08 11:53N 39°46' E 119°51'0 0.1
2018-Jun-08 11:05N 39°46' E 119°51'  
2018-Jun-05 16:05N 39°46' E 119°51'0 0.1
2018-Jun-05 15:53N 39°46' E 119°51'0 0.0
2018-Jun-05 14:11N 39°46' E 119°51'0 0.0
2018-Jun-05 13:17N 39°46' E 119°51'0 0.0
2018-Jun-05 12:53N 39°46' E 119°51'0 0.0
2018-Jun-05 12:26N 39°46' E 119°51'0 0.0
2018-Jun-04 16:00N 39°46' E 119°51'1 1.1
2018-Jun-04 15:30N 39°46' E 119°52'13513.5
2018-Jun-04 05:32N 38°07' E 121°50'113.8
2018-Jun-04 05:27N 38°06' E 121°51'614.1
2018-Jun-04 05:00N 38°03' E 121°57'714.1
2018-Jun-04 04:30N 37°59' E 122°05'713.2
2018-Jun-04 04:00N 37°55' E 122°11'612.8
2018-Jun-04 03:30N 37°51' E 122°18'1912.9
2018-Jun-04 02:01N 37°40' E 122°38'015.3
2018-Jun-04 02:00N 37°40' E 122°38'4612.5
2018-Jun-03 22:16N 36°55' E 122°53'412.4
2018-Jun-03 21:58N 36°51' E 122°53'  

Dump ship's entire track history